Time;durP1;ratioP1;P1;durP2;ratioP2;P2;SDS_P1;SDS_P2;PMS_P1;PMS_P2;Temp;Humidity;BMP_temperature;BMP_pressure;BME280_temperature;BME280_humidity;BME280_pressure;Samples;Min_cycle;Max_cycle;Signal;HPM_P1;HPM_P2
2021/08/09 00:02:20;;;;;;;8.57;3.67;;;13.90;99.90;;;;;;4979220;28;20111;-71
2021/08/09 00:04:47;;;;;;;5.30;2.95;;;13.90;99.90;;;;;;4988860;28;20133;-71
2021/08/09 00:07:15;;;;;;;8.25;3.05;;;14.00;99.90;;;;;;4985828;28;20089;-70
2021/08/09 00:09:44;;;;;;;9.05;3.47;;;14.10;99.90;;;;;;4985562;28;20050;-70
2021/08/09 00:12:10;;;;;;;9.77;2.70;;;14.10;99.90;;;;;;4986428;28;20105;-71
2021/08/09 00:14:39;;;;;;;11.60;4.32;;;14.10;99.90;;;;;;4996320;28;20504;-71
2021/08/09 00:17:07;;;;;;;6.63;3.03;;;14.20;99.90;;;;;;4981510;28;20127;-71
2021/08/09 00:19:34;;;;;;;4.22;3.05;;;14.20;99.90;;;;;;4986495;28;20120;-70
2021/08/09 00:22:00;;;;;;;9.57;3.22;;;14.20;99.90;;;;;;4971407;28;20219;-71
2021/08/09 00:24:28;;;;;;;7.72;3.80;;;14.20;99.90;;;;;;4995758;28;20050;-71
2021/08/09 00:26:55;;;;;;;4.35;3.17;;;14.20;99.90;;;;;;5003782;28;20496;-71
2021/08/09 00:29:22;;;;;;;7.28;2.88;;;14.20;99.90;;;;;;5004349;28;20337;-71
2021/08/09 00:31:49;;;;;;;7.75;3.40;;;14.20;99.90;;;;;;5003735;28;20050;-70
2021/08/09 00:34:16;;;;;;;8.25;2.78;;;14.20;99.90;;;;;;4998520;28;20054;-71
2021/08/09 00:36:43;;;;;;;7.63;3.45;;;14.20;99.90;;;;;;4986634;28;20065;-71
2021/08/09 00:39:10;;;;;;;4.88;3.40;;;14.10;99.90;;;;;;4987985;28;20084;-71
2021/08/09 00:41:37;;;;;;;5.90;3.35;;;14.20;99.90;;;;;;4995480;28;20054;-70
2021/08/09 00:44:05;;;;;;;8.18;3.58;;;14.20;99.90;;;;;;4985696;28;20037;-71
2021/08/09 00:46:33;;;;;;;7.45;2.75;;;14.10;99.90;;;;;;4985661;28;20061;-70
2021/08/09 00:49:01;;;;;;;6.63;3.42;;;14.10;99.90;;;;;;4986535;28;20081;-70
2021/08/09 00:51:29;;;;;;;7.18;3.50;;;14.10;99.90;;;;;;5003632;28;20572;-71
2021/08/09 00:54:00;;;;;;;5.88;3.20;;;14.10;99.90;;;;;;4993328;28;20049;-70
2021/08/09 00:56:28;;;;;;;5.90;3.15;;;14.10;99.90;;;;;;4955771;28;20053;-70
2021/08/09 00:58:56;;;;;;;10.23;3.65;;;14.10;99.90;;;;;;4987371;28;20100;-70
2021/08/09 01:01:24;;;;;;;7.55;3.58;;;14.20;99.90;;;;;;5000240;28;20050;-71
2021/08/09 01:03:52;;;;;;;8.57;3.97;;;14.20;99.90;;;;;;4983775;28;20260;-70
2021/08/09 01:06:21;;;;;;;9.82;3.75;;;14.10;99.90;;;;;;4969201;28;20662;-71
2021/08/09 01:08:59;;;;;;;7.75;4.10;;;14.20;99.90;;;;;;4987551;28;20342;-71
2021/08/09 01:11:31;;;;;;;8.20;3.58;;;14.20;99.90;;;;;;5002308;28;20499;-70
2021/08/09 01:14:26;;;;;;;7.18;3.80;;;14.10;99.90;;;;;;5001300;28;20155;-71
2021/08/09 01:16:55;;;;;;;6.43;3.25;;;14.10;99.90;;;;;;4984172;28;20053;-70
2021/08/09 01:19:44;;;;;;;10.25;3.70;;;14.10;99.90;;;;;;4983634;28;20530;-70
2021/08/09 01:22:34;;;;;;;5.13;3.28;;;14.10;99.90;;;;;;4988464;28;20054;-71
2021/08/09 01:25:14;;;;;;;5.88;3.10;;;14.10;99.90;;;;;;4996807;28;20053;-71
2021/08/09 01:27:43;;;;;;;7.18;3.20;;;14.00;99.90;;;;;;4988222;28;20066;-71
2021/08/09 01:30:11;;;;;;;10.18;3.53;;;14.00;99.90;;;;;;4932888;28;20041;-71
2021/08/09 01:32:42;;;;;;;8.60;3.40;;;14.00;99.90;;;;;;4973484;28;20078;-70
2021/08/09 01:35:11;;;;;;;8.18;3.42;;;13.90;99.90;;;;;;4984550;28;20089;-70
2021/08/09 01:37:44;;;;;;;9.27;3.90;;;13.90;99.90;;;;;;5003103;28;20482;-70
2021/08/09 01:40:13;;;;;;;5.13;3.10;;;13.80;99.90;;;;;;5002142;28;20485;-71
2021/08/09 01:42:43;;;;;;;6.63;3.67;;;13.90;99.90;;;;;;4983023;28;20529;-71
2021/08/09 01:45:12;;;;;;;5.65;3.50;;;13.90;99.90;;;;;;4966825;28;20046;-70
2021/08/09 01:47:41;;;;;;;4.82;3.30;;;13.90;99.90;;;;;;4967847;28;20070;-71
2021/08/09 01:50:10;;;;;;;4.25;3.55;;;13.90;99.90;;;;;;4984378;28;20093;-71
2021/08/09 01:52:41;;;;;;;9.48;3.30;;;14.00;99.90;;;;;;4987869;28;20050;-71
2021/08/09 01:55:12;;;;;;;4.72;3.28;;;14.00;99.90;;;;;;4973615;28;20050;-71
2021/08/09 01:57:41;;;;;;;6.88;3.40;;;14.00;99.90;;;;;;4984773;28;20392;-71
2021/08/09 02:00:12;;;;;;;4.18;3.45;;;14.10;99.90;;;;;;4984585;28;20054;-71
2021/08/09 02:02:42;;;;;;;5.07;3.45;;;14.10;99.90;;;;;;4980839;28;20430;-71
2021/08/09 02:05:13;;;;;;;8.88;3.55;;;14.10;99.90;;;;;;4981582;28;20141;-71
2021/08/09 02:07:48;;;;;;;4.53;3.25;;;14.10;99.90;;;;;;4976105;28;20523;-71
2021/08/09 02:10:29;;;;;;;9.45;4.05;;;14.20;99.90;;;;;;4983628;28;20047;-71
2021/08/09 02:13:26;;;;;;;7.82;3.88;;;14.20;99.90;;;;;;4997744;28;20062;-71
2021/08/09 02:16:35;;;;;;;5.70;3.50;;;14.20;99.90;;;;;;4984530;28;20050;-71
2021/08/09 02:19:38;;;;;;;5.18;3.45;;;14.30;99.90;;;;;;4965001;28;20054;-71
2021/08/09 02:22:13;;;;;;;5.60;3.50;;;14.30;99.90;;;;;;4944269;28;20317;-71
2021/08/09 02:24:57;;;;;;;9.00;3.38;;;14.30;99.90;;;;;;4972903;28;20053;-71
2021/08/09 02:27:33;;;;;;;6.20;3.30;;;14.30;99.90;;;;;;4992227;28;20088;-71
2021/08/09 02:30:01;;;;;;;6.55;3.53;;;14.30;99.90;;;;;;4983183;28;20054;-71
2021/08/09 02:32:31;;;;;;;8.82;3.30;;;14.20;99.90;;;;;;4984946;28;20089;-71
2021/08/09 02:35:01;;;;;;;6.25;4.03;;;14.10;99.90;;;;;;4995206;28;20069;-71
2021/08/09 02:37:28;;;;;;;4.00;3.17;;;14.10;99.90;;;;;;4987127;28;20477;-71
2021/08/09 02:39:57;;;;;;;6.35;4.03;;;14.00;99.90;;;;;;4989743;28;20128;-70
2021/08/09 02:42:24;;;;;;;6.70;3.40;;;14.00;99.90;;;;;;5004656;28;20046;-70
2021/08/09 02:44:51;;;;;;;4.15;3.28;;;13.90;99.90;;;;;;4995901;28;20133;-71
2021/08/09 02:47:20;;;;;;;8.77;3.60;;;13.80;99.90;;;;;;4987685;28;20054;-71
2021/08/09 02:49:49;;;;;;;8.60;3.47;;;13.70;99.90;;;;;;5004943;28;20489;-71
2021/08/09 02:52:19;;;;;;;9.05;3.88;;;13.70;99.90;;;;;;4981749;28;20052;-71
2021/08/09 02:54:48;;;;;;;5.85;2.90;;;13.70;99.90;;;;;;4980709;28;20131;-70
2021/08/09 02:57:18;;;;;;;7.13;3.30;;;13.60;99.90;;;;;;5005408;28;20065;-71
2021/08/09 02:59:45;;;;;;;7.30;3.50;;;13.60;99.90;;;;;;5003378;28;20054;-71
2021/08/09 03:02:16;;;;;;;6.28;3.50;;;13.50;99.90;;;;;;4997951;28;20049;-71
2021/08/09 03:04:43;;;;;;;7.25;4.07;;;13.40;99.90;;;;;;4995508;28;20054;-70
2021/08/09 03:07:11;;;;;;;8.85;4.25;;;13.20;99.90;;;;;;5005419;28;20053;-71
2021/08/09 03:09:40;;;;;;;7.47;4.22;;;13.10;99.90;;;;;;5004786;28;20053;-70
2021/08/09 03:12:07;;;;;;;6.20;4.30;;;13.10;99.90;;;;;;4982129;28;20050;-70
2021/08/09 03:14:36;;;;;;;6.93;3.90;;;13.00;99.90;;;;;;4968060;28;20462;-70
2021/08/09 03:17:05;;;;;;;8.15;4.38;;;12.90;99.90;;;;;;4985139;28;20077;-71
2021/08/09 03:19:32;;;;;;;12.68;4.82;;;12.80;99.90;;;;;;5004603;28;20050;-71
2021/08/09 03:22:01;;;;;;;6.75;3.88;;;12.60;99.90;;;;;;4999777;28;20112;-71
2021/08/09 03:24:30;;;;;;;9.77;3.90;;;12.50;99.90;;;;;;4994818;28;20331;-71
2021/08/09 03:26:58;;;;;;;7.38;3.72;;;12.50;99.90;;;;;;5004670;28;20050;-71
2021/08/09 03:29:25;;;;;;;14.48;4.40;;;12.50;99.90;;;;;;5003875;28;20042;-71
2021/08/09 03:31:52;;;;;;;11.65;3.92;;;12.40;99.90;;;;;;4998641;28;20383;-71
2021/08/09 03:34:19;;;;;;;7.78;3.80;;;12.40;99.90;;;;;;4968448;28;20042;-70
2021/08/09 03:36:49;;;;;;;9.57;3.92;;;12.20;99.90;;;;;;4985032;28;20088;-70
2021/08/09 03:39:16;;;;;;;9.93;4.45;;;12.10;99.90;;;;;;4985490;28;20133;-70
2021/08/09 03:41:44;;;;;;;9.35;4.00;;;12.10;99.90;;;;;;4992150;28;20068;-70
2021/08/09 03:44:11;;;;;;;11.07;4.97;;;12.00;99.90;;;;;;5003514;28;20057;-71
2021/08/09 03:46:37;;;;;;;11.52;4.85;;;12.00;99.90;;;;;;4968321;28;20057;-71
2021/08/09 03:49:07;;;;;;;9.98;4.68;;;12.00;99.90;;;;;;4983745;28;20431;-71
2021/08/09 03:51:38;;;;;;;11.00;3.88;;;12.10;99.90;;;;;;4984956;28;20332;-71
2021/08/09 03:54:07;;;;;;;11.18;3.72;;;12.00;99.90;;;;;;4993134;28;20054;-71
2021/08/09 03:56:35;;;;;;;11.00;4.72;;;12.00;99.90;;;;;;4974764;28;20104;-71
2021/08/09 03:59:02;;;;;;;7.45;4.18;;;12.00;99.90;;;;;;4987813;28;20313;-70
2021/08/09 04:01:29;;;;;;;9.60;4.13;;;12.10;99.90;;;;;;4988704;28;20446;-71
2021/08/09 04:03:56;;;;;;;10.75;4.18;;;12.10;99.90;;;;;;4991891;28;20058;-71
2021/08/09 04:06:23;;;;;;;7.70;4.50;;;12.00;99.90;;;;;;4986317;28;20385;-71
2021/08/09 04:08:50;;;;;;;11.00;4.07;;;12.00;99.90;;;;;;5003103;28;20326;-71
2021/08/09 04:11:17;;;;;;;14.95;5.05;;;12.00;99.90;;;;;;4998102;28;20046;-71
2021/08/09 04:13:45;;;;;;;9.75;4.57;;;12.00;99.90;;;;;;4979841;28;20517;-71
2021/08/09 04:16:12;;;;;;;10.95;4.30;;;11.90;99.90;;;;;;4985209;28;20053;-71
2021/08/09 04:18:39;;;;;;;11.35;4.38;;;11.90;99.90;;;;;;4984243;28;20046;-71
2021/08/09 04:21:06;;;;;;;11.40;4.53;;;12.00;99.90;;;;;;4968099;28;20286;-72
2021/08/09 04:23:33;;;;;;;10.27;4.30;;;12.00;99.90;;;;;;4991129;28;20053;-71
2021/08/09 04:25:59;;;;;;;9.35;3.88;;;12.00;99.90;;;;;;5001467;28;20053;-71
2021/08/09 04:28:26;;;;;;;10.07;4.30;;;12.10;99.90;;;;;;4971551;28;20313;-71
2021/08/09 04:30:53;;;;;;;9.05;4.07;;;12.20;99.90;;;;;;4982971;28;20547;-71
2021/08/09 04:33:20;;;;;;;7.30;4.15;;;12.10;99.90;;;;;;4970113;28;20124;-71
2021/08/09 04:35:57;;;;;;;8.48;4.03;;;12.20;99.90;;;;;;4967768;28;20053;-71
2021/08/09 04:38:24;;;;;;;5.38;3.65;;;12.20;99.90;;;;;;4967871;28;20054;-71
2021/08/09 04:40:52;;;;;;;7.20;4.20;;;12.20;99.90;;;;;;4983760;28;20056;-71
2021/08/09 04:43:19;;;;;;;7.05;3.45;;;12.30;99.90;;;;;;5003190;28;20038;-71
2021/08/09 04:45:47;;;;;;;7.43;4.30;;;12.30;99.90;;;;;;4978757;28;20276;-71
2021/08/09 04:48:14;;;;;;;8.45;3.47;;;12.40;99.90;;;;;;4988867;28;20314;-71
2021/08/09 04:50:41;;;;;;;9.57;4.25;;;12.40;99.90;;;;;;4987475;28;20051;-71
2021/08/09 04:53:09;;;;;;;7.25;4.25;;;12.50;99.90;;;;;;4991169;28;20146;-71
2021/08/09 04:55:37;;;;;;;8.73;3.88;;;12.50;99.90;;;;;;4979582;28;20065;-71
2021/08/09 04:58:04;;;;;;;8.88;4.25;;;12.60;99.90;;;;;;4986895;28;20049;-71
2021/08/09 05:00:31;;;;;;;6.68;3.67;;;12.60;99.90;;;;;;4982616;28;20046;-71
2021/08/09 05:02:59;;;;;;;6.38;3.63;;;12.60;99.90;;;;;;4988714;28;20058;-71
2021/08/09 05:05:26;;;;;;;7.97;3.63;;;12.60;99.90;;;;;;4952526;28;20902;-71
2021/08/09 05:07:57;;;;;;;7.28;3.42;;;12.70;99.90;;;;;;4983285;28;20132;-71
2021/08/09 05:10:26;;;;;;;6.10;3.20;;;12.90;99.90;;;;;;4967924;28;20058;-71
2021/08/09 05:12:54;;;;;;;5.43;3.40;;;12.90;99.90;;;;;;4982874;28;20322;-71
2021/08/09 05:15:23;;;;;;;6.22;3.60;;;13.00;99.90;;;;;;4981932;28;20054;-71
2021/08/09 05:17:49;;;;;;;7.28;3.78;;;13.00;99.90;;;;;;4989536;28;20382;-71
2021/08/09 05:20:17;;;;;;;4.35;3.17;;;13.10;99.90;;;;;;4991234;28;20534;-71
2021/08/09 05:22:44;;;;;;;6.88;3.58;;;13.20;99.90;;;;;;4989329;28;20062;-72
2021/08/09 05:25:11;;;;;;;5.30;3.30;;;13.10;99.90;;;;;;4997829;28;20263;-71
2021/08/09 05:27:39;;;;;;;5.38;2.90;;;13.00;99.90;;;;;;4986351;28;20651;-71
2021/08/09 05:30:06;;;;;;;9.63;3.72;;;13.20;99.90;;;;;;5003135;28;20045;-71
2021/08/09 05:32:34;;;;;;;4.72;3.38;;;13.40;99.90;;;;;;4995613;28;20054;-71
2021/08/09 05:35:02;;;;;;;9.60;3.40;;;13.50;99.90;;;;;;4973701;28;20050;-71
2021/08/09 05:37:32;;;;;;;7.35;4.00;;;13.50;99.90;;;;;;4983606;28;20054;-71
2021/08/09 05:40:04;;;;;;;7.50;3.55;;;13.50;99.90;;;;;;4983029;28;20058;-71
2021/08/09 05:42:31;;;;;;;5.45;3.08;;;13.60;99.90;;;;;;4982633;28;20085;-70
2021/08/09 05:44:58;;;;;;;6.30;3.60;;;13.60;99.90;;;;;;4966379;28;20046;-71
2021/08/09 05:47:26;;;;;;;4.80;3.05;;;13.50;99.90;;;;;;4958333;28;20507;-71
2021/08/09 05:49:55;;;;;;;5.05;3.22;;;13.50;99.90;;;;;;4966474;28;20046;-71
2021/08/09 05:52:25;;;;;;;5.68;3.10;;;13.50;99.90;;;;;;4967792;28;20047;-71
2021/08/09 05:55:06;;;;;;;6.22;4.25;;;13.50;99.90;;;;;;4994218;28;20145;-71
2021/08/09 05:57:33;;;;;;;5.75;3.88;;;13.40;99.90;;;;;;4985910;28;20054;-71
2021/08/09 06:00:00;;;;;;;6.07;3.85;;;13.40;99.90;;;;;;5002164;28;20140;-71
2021/08/09 06:02:28;;;;;;;8.75;3.33;;;13.40;99.90;;;;;;4994163;28;20072;-71
2021/08/09 06:04:55;;;;;;;5.07;3.22;;;13.50;99.90;;;;;;4982838;28;20077;-71
2021/08/09 06:07:22;;;;;;;5.85;3.13;;;13.50;99.90;;;;;;4966222;28;20084;-71
2021/08/09 06:10:01;;;;;;;5.18;3.25;;;13.60;99.90;;;;;;4985693;28;20057;-71
2021/08/09 06:12:29;;;;;;;9.77;3.40;;;13.60;99.90;;;;;;4985571;28;20054;-71
2021/08/09 06:14:56;;;;;;;5.03;2.70;;;13.60;99.90;;;;;;4976136;28;20046;-71
2021/08/09 06:17:23;;;;;;;4.88;3.35;;;13.70;99.90;;;;;;4965214;28;20132;-71
2021/08/09 06:19:51;;;;;;;5.03;2.85;;;13.70;99.90;;;;;;4964201;28;20093;-71
2021/08/09 06:22:19;;;;;;;5.03;2.92;;;13.80;99.90;;;;;;4983003;28;20415;-71
2021/08/09 06:24:46;;;;;;;3.92;3.05;;;13.90;99.90;;;;;;4984280;28;20058;-71
2021/08/09 06:27:13;;;;;;;6.43;3.45;;;14.10;99.90;;;;;;4963150;28;20043;-71
2021/08/09 06:29:40;;;;;;;3.42;2.80;;;14.20;99.90;;;;;;4981660;28;20551;-71
2021/08/09 06:32:08;;;;;;;5.40;3.15;;;14.40;99.90;;;;;;4967902;28;20145;-71
2021/08/09 06:34:35;;;;;;;6.90;3.10;;;14.50;99.90;;;;;;4982632;28;20059;-71
2021/08/09 06:37:02;;;;;;;6.43;3.53;;;14.50;99.90;;;;;;4981690;28;20331;-71
2021/08/09 06:39:32;;;;;;;3.80;3.50;;;14.60;99.90;;;;;;4991729;28;20362;-71
2021/08/09 06:42:02;;;;;;;6.03;3.38;;;14.70;99.90;;;;;;5002116;28;20065;-71
2021/08/09 06:44:35;;;;;;;6.28;3.70;;;14.80;99.90;;;;;;4992828;28;20055;-71
2021/08/09 06:47:02;;;;;;;5.07;3.70;;;14.90;99.90;;;;;;4981989;28;20145;-71
2021/08/09 06:49:29;;;;;;;5.45;3.60;;;15.10;99.90;;;;;;4988233;28;20068;-71
2021/08/09 06:51:56;;;;;;;4.55;3.83;;;15.40;99.90;;;;;;4980303;28;20053;-71
2021/08/09 06:54:24;;;;;;;8.40;4.95;;;15.70;99.90;;;;;;4991938;28;20034;-71
2021/08/09 06:56:54;;;;;;;7.20;4.25;;;15.80;99.90;;;;;;4994353;28;20054;-71
2021/08/09 06:59:20;;;;;;;9.70;5.30;;;15.90;99.90;;;;;;4981667;28;20137;-72
2021/08/09 07:01:48;;;;;;;4.82;4.45;;;16.10;99.90;;;;;;4974172;28;20061;-71
2021/08/09 07:04:15;;;;;;;5.28;4.78;;;16.30;99.90;;;;;;4966208;28;20167;-71
2021/08/09 07:06:44;;;;;;;5.35;4.53;;;16.60;99.90;;;;;;4994100;28;20046;-71
2021/08/09 07:09:11;;;;;;;6.88;4.50;;;16.70;99.90;;;;;;4976848;28;20057;-71
2021/08/09 07:11:39;;;;;;;5.78;4.75;;;16.80;99.90;;;;;;4964196;28;20555;-72
2021/08/09 07:14:06;;;;;;;6.50;5.72;;;16.90;99.90;;;;;;4981387;28;20572;-72
2021/08/09 07:16:34;;;;;;;7.53;5.63;;;17.10;99.90;;;;;;4981782;28;20069;-72
2021/08/09 07:19:01;;;;;;;8.50;5.53;;;17.50;99.90;;;;;;4981800;28;20057;-71
2021/08/09 07:21:28;;;;;;;6.75;6.15;;;17.50;99.90;;;;;;4979884;28;20046;-72
2021/08/09 07:23:59;;;;;;;9.27;6.25;;;17.70;99.90;;;;;;4993846;28;20504;-72
2021/08/09 07:26:26;;;;;;;7.00;6.50;;;18.00;99.90;;;;;;4985774;28;20046;-72
2021/08/09 07:28:53;;;;;;;8.93;8.05;;;18.30;99.90;;;;;;4986825;28;20582;-72
2021/08/09 07:31:20;;;;;;;8.05;7.45;;;18.10;99.90;;;;;;4968858;28;20057;-76
2021/08/09 07:33:47;;;;;;;7.43;6.93;;;18.10;99.90;;;;;;4985250;28;20116;-76
2021/08/09 07:36:14;;;;;;;7.97;7.20;;;18.20;99.90;;;;;;4956831;28;20072;-74
2021/08/09 07:38:42;;;;;;;7.75;7.13;;;18.40;99.90;;;;;;4971147;28;20061;-76
2021/08/09 07:41:10;;;;;;;8.18;7.55;;;18.60;99.90;;;;;;4968948;28;20050;-76
2021/08/09 07:43:38;;;;;;;8.18;7.40;;;18.80;99.90;;;;;;4985071;28;20732;-75
2021/08/09 07:46:05;;;;;;;7.68;6.88;;;18.90;99.90;;;;;;4968525;28;20531;-76
2021/08/09 07:48:32;;;;;;;7.93;7.32;;;18.90;99.90;;;;;;4984747;28;20086;-75
2021/08/09 07:50:59;;;;;;;8.05;7.43;;;18.90;99.90;;;;;;4983536;28;20250;-75
2021/08/09 07:53:26;;;;;;;8.38;7.80;;;18.90;99.90;;;;;;4978651;28;20077;-76
2021/08/09 07:55:53;;;;;;;8.00;7.40;;;18.70;99.90;;;;;;4954355;28;20058;-76
2021/08/09 07:58:20;;;;;;;8.13;7.63;;;18.60;99.90;;;;;;4985294;28;20082;-75
2021/08/09 08:00:48;;;;;;;8.30;7.65;;;18.70;99.90;;;;;;4968212;28;20284;-76
2021/08/09 08:03:15;;;;;;;7.57;6.97;;;18.80;99.90;;;;;;4991414;28;20097;-76
2021/08/09 08:05:45;;;;;;;6.65;6.15;;;18.90;99.90;;;;;;5003007;28;20053;-76
2021/08/09 08:08:13;;;;;;;7.45;6.72;;;19.00;99.90;;;;;;4998341;28;20060;-75
2021/08/09 08:10:40;;;;;;;7.22;6.60;;;19.10;99.90;;;;;;4974779;28;20057;-76
2021/08/09 08:13:07;;;;;;;7.70;7.15;;;18.80;99.90;;;;;;4984360;28;20124;-76
2021/08/09 08:15:35;;;;;;;9.05;7.28;;;18.60;99.90;;;;;;4979977;28;20047;-76
2021/08/09 08:18:02;;;;;;;8.38;7.43;;;18.60;99.90;;;;;;4967951;28;20054;-76
2021/08/09 08:20:29;;;;;;;6.70;6.20;;;18.60;99.90;;;;;;4966841;28;20446;-77
2021/08/09 08:22:58;;;;;;;7.05;6.38;;;18.60;99.90;;;;;;4974951;28;20038;-76
2021/08/09 08:25:24;;;;;;;7.53;6.80;;;18.50;99.90;;;;;;4996166;28;20046;-75
2021/08/09 08:27:52;;;;;;;7.38;5.85;;;18.20;99.90;;;;;;4987726;28;20057;-76
2021/08/09 08:30:20;;;;;;;8.48;6.53;;;18.00;99.90;;;;;;5002982;28;20414;-75
2021/08/09 08:32:54;;;;;;;7.50;6.40;;;18.00;99.90;;;;;;4988552;28;20194;-76
2021/08/09 08:35:21;;;;;;;6.00;5.50;;;18.00;99.90;;;;;;4963158;28;20330;-76
2021/08/09 08:37:48;;;;;;;6.97;6.30;;;18.00;99.90;;;;;;4968309;28;20047;-76
2021/08/09 08:40:15;;;;;;;6.50;5.88;;;18.00;99.90;;;;;;4967311;28;20046;-76
2021/08/09 08:42:47;;;;;;;6.72;6.00;;;18.00;99.90;;;;;;4967921;28;20068;-76
2021/08/09 08:45:20;;;;;;;7.50;6.32;;;18.00;99.90;;;;;;4967472;28;20245;-77
2021/08/09 08:47:50;;;;;;;;;;;18.10;99.90;;;;;;4984814;28;20470;-75
2021/08/09 08:50:21;;;;;;;6.93;6.20;;;18.10;99.90;;;;;;4979896;28;19964;-77
2021/08/09 08:52:51;;;;;;;6.40;5.90;;;18.00;99.90;;;;;;4997106;28;20596;-75
2021/08/09 08:55:20;;;;;;;7.43;6.75;;;18.30;99.90;;;;;;4961105;28;20041;-75
2021/08/09 08:57:48;;;;;;;10.18;7.15;;;18.70;99.90;;;;;;4984973;28;20047;-76
2021/08/09 09:00:16;;;;;;;8.00;7.20;;;19.10;99.90;;;;;;4987356;28;20129;-76
2021/08/09 09:02:43;;;;;;;7.05;6.55;;;19.30;99.90;;;;;;4987403;28;20152;-76
2021/08/09 09:05:16;;;;;;;7.43;6.72;;;19.30;99.90;;;;;;4987481;28;20065;-76
2021/08/09 09:07:54;;;;;;;7.65;7.13;;;19.50;99.90;;;;;;4986446;28;20054;-76
2021/08/09 09:10:23;;;;;;;9.48;7.40;;;19.50;99.90;;;;;;4972759;28;20073;-76
2021/08/09 09:13:17;;;;;;;7.55;7.10;;;19.40;99.90;;;;;;4987648;28;20054;-75
2021/08/09 09:15:56;;;;;;;9.23;8.32;;;19.20;99.90;;;;;;4982547;28;20487;-76
2021/08/09 09:18:26;;;;;;;10.18;7.20;;;19.20;99.90;;;;;;4983172;28;20049;-76
2021/08/09 09:20:54;;;;;;;8.05;7.47;;;19.20;99.90;;;;;;4983371;28;20495;-76
2021/08/09 09:23:23;;;;;;;7.15;6.55;;;19.30;99.90;;;;;;4991871;28;20112;-75
2021/08/09 09:25:51;;;;;;;6.75;6.22;;;19.30;99.90;;;;;;4998239;28;20049;-76
2021/08/09 09:28:33;;;;;;;7.05;6.45;;;19.30;99.90;;;;;;5003273;28;20334;-76
2021/08/09 09:31:07;;;;;;;7.15;6.50;;;19.20;99.90;;;;;;5001794;28;20096;-75
2021/08/09 09:33:34;;;;;;;7.95;6.80;;;19.20;99.90;;;;;;4997334;28;20050;-75
2021/08/09 09:36:03;;;;;;;7.35;6.65;;;19.10;99.90;;;;;;4983456;28;20180;-77
2021/08/09 09:38:40;;;;;;;7.22;6.65;;;19.20;99.90;;;;;;4984828;28;20050;-76
2021/08/09 09:41:08;;;;;;;8.85;8.10;;;19.20;99.90;;;;;;4986835;28;20422;-76
2021/08/09 09:43:40;;;;;;;8.68;7.97;;;19.30;99.90;;;;;;5003575;28;20057;-76
2021/08/09 09:46:19;;;;;;;8.82;8.13;;;19.70;99.90;;;;;;4983098;28;20050;-76
2021/08/09 09:48:46;;;;;;;9.68;8.75;;;19.90;99.90;;;;;;4984209;28;20054;-76
2021/08/09 09:51:18;;;;;;;8.77;8.10;;;20.10;99.90;;;;;;4966602;28;20046;-76
2021/08/09 09:53:47;;;;;;;9.32;8.73;;;20.20;99.90;;;;;;4991451;28;20151;-76
2021/08/09 09:56:14;;;;;;;9.73;9.18;;;20.40;99.90;;;;;;4999956;28;20348;-75
2021/08/09 09:58:41;;;;;;;9.30;8.70;;;20.50;99.90;;;;;;5003828;28;20049;-76
2021/08/09 10:01:10;;;;;;;9.73;8.98;;;20.50;99.90;;;;;;5001489;28;20054;-75
2021/08/09 10:03:38;;;;;;;9.25;8.55;;;20.50;99.90;;;;;;5003910;28;20058;-75
2021/08/09 10:06:05;;;;;;;9.93;9.07;;;20.30;99.90;;;;;;4997369;28;20124;-75
2021/08/09 10:08:34;;;;;;;8.77;8.27;;;20.40;99.90;;;;;;4989648;28;20667;-75
2021/08/09 10:11:04;;;;;;;9.38;8.70;;;20.20;99.90;;;;;;4996586;28;20129;-76
2021/08/09 10:13:33;;;;;;;9.93;9.20;;;20.00;99.90;;;;;;4981567;28;20105;-77
2021/08/09 10:16:03;;;;;;;9.00;8.60;;;20.00;99.90;;;;;;4979271;28;20145;-75
2021/08/09 10:18:33;;;;;;;9.07;8.43;;;20.10;99.90;;;;;;4982806;28;20054;-74
2021/08/09 10:21:02;;;;;;;8.90;8.40;;;20.40;99.90;;;;;;4979322;28;20060;-75
2021/08/09 10:23:45;;;;;;;8.98;8.38;;;20.50;99.90;;;;;;4991337;28;20085;-74
2021/08/09 10:26:37;;;;;;;9.65;9.05;;;20.50;99.90;;;;;;4985125;28;20237;-75
2021/08/09 10:29:08;;;;;;;9.50;9.00;;;20.30;99.90;;;;;;4980675;28;20385;-75
2021/08/09 10:31:47;;;;;;;10.55;9.52;;;20.20;99.90;;;;;;4982131;28;20086;-74
2021/08/09 10:34:37;;;;;;;8.23;7.60;;;20.20;99.90;;;;;;4991232;28;20278;-75
2021/08/09 10:37:11;;;;;;;7.65;7.25;;;20.40;99.90;;;;;;4982884;28;20075;-74
2021/08/09 10:39:54;;;;;;;8.48;8.00;;;20.50;99.90;;;;;;4981376;28;20054;-76
2021/08/09 10:42:34;;;;;;;9.52;8.85;;;20.50;99.90;;;;;;4950742;28;20120;-76
2021/08/09 10:45:02;;;;;;;9.52;8.98;;;20.40;99.90;;;;;;4957348;28;20085;-76
2021/08/09 10:47:49;;;;;;;8.00;7.40;;;20.80;99.90;;;;;;4982881;28;20054;-76
2021/08/09 10:50:39;;;;;;;7.60;7.20;;;21.30;99.90;;;;;;4982862;28;20042;-75
2021/08/09 10:53:25;;;;;;;9.68;9.00;;;21.00;99.90;;;;;;4981257;28;20054;-76
2021/08/09 10:55:55;;;;;;;;;;;20.70;99.90;;;;;;4997745;28;20325;-76
2021/08/09 10:58:41;;;;;;;10.55;9.65;;;21.00;99.90;;;;;;4987758;28;19933;-76
2021/08/09 11:01:12;;;;;;;9.95;9.30;;;21.50;99.90;;;;;;4982869;28;20057;-77
2021/08/09 11:04:04;;;;;;;9.20;8.70;;;21.80;99.90;;;;;;5003759;28;20537;-76
2021/08/09 11:06:52;;;;;;;10.02;9.18;;;21.90;99.90;;;;;;5006725;28;20506;-76
2021/08/09 11:09:31;;;;;;;9.77;9.27;;;21.60;99.90;;;;;;5006474;28;20049;-75
2021/08/09 11:12:14;;;;;;;8.85;8.25;;;21.20;99.90;;;;;;5004873;28;20050;-76
2021/08/09 11:15:00;;;;;;;9.05;8.15;;;20.80;99.90;;;;;;5006257;28;20062;-75
2021/08/09 11:17:29;;;;;;;7.93;7.43;;;20.50;99.90;;;;;;4980868;28;20088;-76
2021/08/09 11:20:09;;;;;;;8.13;7.45;;;20.30;99.90;;;;;;4993868;28;20065;-76
2021/08/09 11:22:37;;;;;;;8.90;8.13;;;20.10;99.90;;;;;;4986539;28;20046;-76
2021/08/09 11:25:30;;;;;;;9.10;8.13;;;19.90;99.90;;;;;;4980053;28;20057;-76
2021/08/09 11:28:06;;;;;;;8.70;8.20;;;19.80;99.90;;;;;;5006330;28;20073;-76
2021/08/09 11:30:42;;;;;;;8.40;7.72;;;19.80;99.90;;;;;;4982048;28;20049;-76
2021/08/09 11:33:33;;;;;;;8.80;8.40;;;20.10;99.90;;;;;;4998041;28;20046;-76
2021/08/09 11:36:06;;;;;;;8.45;7.97;;;20.30;99.90;;;;;;4984731;28;20089;-76
2021/08/09 11:38:48;;;;;;;9.15;8.27;;;20.30;99.90;;;;;;4986670;28;20054;-76
2021/08/09 11:41:20;;;;;;;8.73;8.10;;;20.40;99.90;;;;;;4985273;28;20190;-76
2021/08/09 11:43:48;;;;;;;8.95;8.45;;;20.40;99.90;;;;;;4985968;28;20054;-76
2021/08/09 11:46:18;;;;;;;9.35;8.70;;;20.30;99.90;;;;;;4967133;28;20495;-75
2021/08/09 11:48:50;;;;;;;9.10;8.68;;;20.20;99.90;;;;;;4953729;28;20145;-76
2021/08/09 11:51:22;;;;;;;8.35;7.75;;;20.20;99.90;;;;;;4985668;28;20050;-76
2021/08/09 11:53:51;;;;;;;8.23;7.63;;;20.20;99.90;;;;;;4985791;28;20427;-76
2021/08/09 11:56:24;;;;;;;8.88;8.20;;;20.00;99.90;;;;;;4998597;28;20067;-76
2021/08/09 11:58:51;;;;;;;9.00;8.30;;;19.90;99.90;;;;;;5005729;28;20592;-76
2021/08/09 12:01:38;;;;;;;8.88;8.20;;;20.00;99.90;;;;;;4994786;28;20046;-76
2021/08/09 12:04:13;;;;;;;7.70;7.00;;;19.80;99.90;;;;;;5007181;28;20153;-76
2021/08/09 12:06:49;;;;;;;6.97;6.50;;;19.60;99.90;;;;;;4992824;28;20046;-75
2021/08/09 12:09:18;;;;;;;7.00;6.38;;;19.20;99.90;;;;;;4985357;28;20289;-75
2021/08/09 12:11:59;;;;;;;8.20;5.68;;;19.00;99.90;;;;;;4986015;28;20466;-76
2021/08/09 12:14:25;;;;;;;5.60;5.07;;;18.70;99.90;;;;;;4985706;28;20265;-75
2021/08/09 12:16:57;;;;;;;5.07;4.68;;;18.50;99.90;;;;;;4984646;28;20047;-75
2021/08/09 12:19:51;;;;;;;6.55;4.70;;;18.30;99.90;;;;;;4985015;28;20062;-76
2021/08/09 12:22:29;;;;;;;5.18;4.45;;;18.20;99.90;;;;;;4952940;28;20069;-75
2021/08/09 12:25:05;;;;;;;4.63;4.30;;;18.20;99.90;;;;;;4984045;28;20116;-73
2021/08/09 12:27:34;;;;;;;4.50;4.20;;;18.30;99.90;;;;;;4967407;28;20085;-73
2021/08/09 12:30:07;;;;;;;7.68;5.18;;;18.40;99.90;;;;;;4984024;28;20513;-73
2021/08/09 12:32:35;;;;;;;6.68;5.60;;;18.40;99.90;;;;;;4974661;28;20688;-75
2021/08/09 12:35:04;;;;;;;6.00;5.50;;;18.40;99.90;;;;;;4985396;28;20038;-74
2021/08/09 12:37:34;;;;;;;5.88;5.03;;;18.50;99.90;;;;;;4977381;28;20050;-73
2021/08/09 12:40:12;;;;;;;5.82;5.25;;;18.70;99.90;;;;;;4984006;28;20051;-74
2021/08/09 12:42:41;;;;;;;7.10;6.50;;;18.90;99.90;;;;;;4968947;28;20542;-73
2021/08/09 12:45:09;;;;;;;7.13;6.53;;;18.90;99.90;;;;;;4983425;28;20069;-74
2021/08/09 12:47:36;;;;;;;7.45;6.80;;;19.00;99.90;;;;;;4984617;28;20565;-74
2021/08/09 12:50:03;;;;;;;6.63;5.90;;;19.20;99.90;;;;;;4986578;28;20070;-74
2021/08/09 12:52:30;;;;;;;7.53;6.93;;;19.50;99.90;;;;;;4983028;28;20066;-73
2021/08/09 12:54:57;;;;;;;7.47;6.90;;;19.70;99.90;;;;;;4985640;28;20286;-73
2021/08/09 12:57:24;;;;;;;7.25;6.55;;;19.60;99.90;;;;;;4984531;28;20049;-73
2021/08/09 12:59:51;;;;;;;6.90;6.50;;;19.70;99.90;;;;;;4972513;28;20438;-74
2021/08/09 13:02:18;;;;;;;7.53;7.00;;;19.60;99.90;;;;;;5005402;28;20116;-74
2021/08/09 13:04:45;;;;;;;8.07;7.57;;;19.70;99.90;;;;;;4984261;28;20046;-74